sensor_id;sensor_type;location;lat;lon;timestamp;P1;durP1;ratioP1;P2;durP2;ratioP2
45548;SDS011;31270;48.328;10.096;2022-12-05T00:01:24;36.57;;;15.03;;
45548;SDS011;31270;48.328;10.096;2022-12-05T00:04:02;40.83;;;15.83;;
45548;SDS011;31270;48.328;10.096;2022-12-05T00:06:33;38.23;;;15.03;;
45548;SDS011;31270;48.328;10.096;2022-12-05T00:09:00;31.83;;;14.13;;
45548;SDS011;31270;48.328;10.096;2022-12-05T00:11:28;40.23;;;16.50;;
45548;SDS011;31270;48.328;10.096;2022-12-05T00:13:56;32.07;;;13.87;;
45548;SDS011;31270;48.328;10.096;2022-12-05T00:16:23;31.70;;;13.60;;
45548;SDS011;31270;48.328;10.096;2022-12-05T00:18:50;32.53;;;13.33;;
45548;SDS011;31270;48.328;10.096;2022-12-05T00:21:21;28.83;;;12.87;;
45548;SDS011;31270;48.328;10.096;2022-12-05T00:23:49;33.77;;;14.93;;
45548;SDS011;31270;48.328;10.096;2022-12-05T00:26:16;27.93;;;13.77;;
45548;SDS011;31270;48.328;10.096;2022-12-05T00:28:42;31.60;;;13.33;;
45548;SDS011;31270;48.328;10.096;2022-12-05T00:31:10;30.70;;;13.97;;
45548;SDS011;31270;48.328;10.096;2022-12-05T00:33:37;32.20;;;14.33;;
45548;SDS011;31270;48.328;10.096;2022-12-05T00:36:05;31.07;;;13.23;;
45548;SDS011;31270;48.328;10.096;2022-12-05T00:38:32;31.77;;;13.47;;
45548;SDS011;31270;48.328;10.096;2022-12-05T00:41:02;31.63;;;13.90;;
45548;SDS011;31270;48.328;10.096;2022-12-05T00:43:32;34.33;;;13.43;;
45548;SDS011;31270;48.328;10.096;2022-12-05T00:46:01;33.00;;;13.83;;
45548;SDS011;31270;48.328;10.096;2022-12-05T00:48:28;29.87;;;13.93;;
45548;SDS011;31270;48.328;10.096;2022-12-05T00:51:10;33.07;;;13.77;;
45548;SDS011;31270;48.328;10.096;2022-12-05T00:53:38;33.27;;;13.97;;
45548;SDS011;31270;48.328;10.096;2022-12-05T00:56:06;27.20;;;12.97;;
45548;SDS011;31270;48.328;10.096;2022-12-05T00:58:33;35.83;;;13.53;;
45548;SDS011;31270;48.328;10.096;2022-12-05T01:01:10;34.60;;;14.23;;
45548;SDS011;31270;48.328;10.096;2022-12-05T01:03:37;29.33;;;13.60;;
45548;SDS011;31270;48.328;10.096;2022-12-05T01:06:04;32.70;;;13.03;;
45548;SDS011;31270;48.328;10.096;2022-12-05T01:08:31;29.40;;;13.87;;
45548;SDS011;31270;48.328;10.096;2022-12-05T01:10:58;28.60;;;13.57;;
45548;SDS011;31270;48.328;10.096;2022-12-05T01:13:24;37.57;;;14.83;;
45548;SDS011;31270;48.328;10.096;2022-12-05T01:15:51;28.57;;;13.33;;
45548;SDS011;31270;48.328;10.096;2022-12-05T01:18:17;30.67;;;12.53;;
45548;SDS011;31270;48.328;10.096;2022-12-05T01:20:44;30.37;;;13.93;;
45548;SDS011;31270;48.328;10.096;2022-12-05T01:23:10;29.80;;;14.20;;
45548;SDS011;31270;48.328;10.096;2022-12-05T01:25:39;29.87;;;13.60;;
45548;SDS011;31270;48.328;10.096;2022-12-05T01:28:06;33.67;;;14.47;;
45548;SDS011;31270;48.328;10.096;2022-12-05T01:30:32;34.63;;;14.30;;
45548;SDS011;31270;48.328;10.096;2022-12-05T01:33:01;31.20;;;13.53;;
45548;SDS011;31270;48.328;10.096;2022-12-05T01:35:26;35.27;;;14.33;;
45548;SDS011;31270;48.328;10.096;2022-12-05T01:37:56;29.60;;;14.43;;
45548;SDS011;31270;48.328;10.096;2022-12-05T01:40:22;30.00;;;13.07;;
45548;SDS011;31270;48.328;10.096;2022-12-05T01:42:47;28.43;;;13.67;;
45548;SDS011;31270;48.328;10.096;2022-12-05T01:45:14;27.77;;;13.43;;
45548;SDS011;31270;48.328;10.096;2022-12-05T01:47:42;28.20;;;13.40;;
45548;SDS011;31270;48.328;10.096;2022-12-05T01:50:08;28.20;;;12.63;;
45548;SDS011;31270;48.328;10.096;2022-12-05T01:52:36;30.90;;;12.53;;
45548;SDS011;31270;48.328;10.096;2022-12-05T01:55:05;31.37;;;13.37;;
45548;SDS011;31270;48.328;10.096;2022-12-05T01:57:34;31.67;;;14.30;;
45548;SDS011;31270;48.328;10.096;2022-12-05T02:00:04;31.43;;;13.33;;
45548;SDS011;31270;48.328;10.096;2022-12-05T02:02:35;29.77;;;12.80;;
45548;SDS011;31270;48.328;10.096;2022-12-05T02:05:07;27.90;;;12.67;;
45548;SDS011;31270;48.328;10.096;2022-12-05T02:07:42;32.43;;;12.70;;
45548;SDS011;31270;48.328;10.096;2022-12-05T02:10:09;29.47;;;13.33;;
45548;SDS011;31270;48.328;10.096;2022-12-05T02:12:34;25.90;;;12.40;;
45548;SDS011;31270;48.328;10.096;2022-12-05T02:23:09;32.90;;;13.77;;
45548;SDS011;31270;48.328;10.096;2022-12-05T02:26:05;29.03;;;12.87;;
45548;SDS011;31270;48.328;10.096;2022-12-05T02:28:55;30.73;;;12.37;;
45548;SDS011;31270;48.328;10.096;2022-12-05T02:34:30;33.97;;;13.87;;
45548;SDS011;31270;48.328;10.096;2022-12-05T02:37:32;29.27;;;12.77;;
45548;SDS011;31270;48.328;10.096;2022-12-05T02:40:09;28.90;;;13.43;;
45548;SDS011;31270;48.328;10.096;2022-12-05T02:45:15;35.37;;;13.47;;
45548;SDS011;31270;48.328;10.096;2022-12-05T02:47:45;35.87;;;14.60;;
45548;SDS011;31270;48.328;10.096;2022-12-05T02:50:16;39.03;;;14.17;;
45548;SDS011;31270;48.328;10.096;2022-12-05T02:52:47;33.40;;;14.60;;
45548;SDS011;31270;48.328;10.096;2022-12-05T02:55:15;42.53;;;14.37;;
45548;SDS011;31270;48.328;10.096;2022-12-05T02:57:44;37.13;;;14.80;;
45548;SDS011;31270;48.328;10.096;2022-12-05T03:00:14;40.53;;;15.07;;
45548;SDS011;31270;48.328;10.096;2022-12-05T03:02:40;40.87;;;15.00;;
45548;SDS011;31270;48.328;10.096;2022-12-05T03:05:20;40.93;;;14.10;;
45548;SDS011;31270;48.328;10.096;2022-12-05T03:07:53;41.33;;;15.27;;
45548;SDS011;31270;48.328;10.096;2022-12-05T03:10:22;38.87;;;14.97;;
45548;SDS011;31270;48.328;10.096;2022-12-05T03:12:55;39.83;;;15.13;;
45548;SDS011;31270;48.328;10.096;2022-12-05T03:15:44;46.20;;;14.97;;
45548;SDS011;31270;48.328;10.096;2022-12-05T03:18:21;41.67;;;15.70;;
45548;SDS011;31270;48.328;10.096;2022-12-05T03:20:56;47.90;;;16.30;;
45548;SDS011;31270;48.328;10.096;2022-12-05T03:23:33;45.47;;;15.67;;
45548;SDS011;31270;48.328;10.096;2022-12-05T03:26:05;38.90;;;15.73;;
45548;SDS011;31270;48.328;10.096;2022-12-05T03:28:49;50.40;;;16.33;;
45548;SDS011;31270;48.328;10.096;2022-12-05T03:31:42;44.33;;;16.27;;
45548;SDS011;31270;48.328;10.096;2022-12-05T03:34:26;47.40;;;17.23;;
45548;SDS011;31270;48.328;10.096;2022-12-05T03:37:11;44.53;;;16.47;;
45548;SDS011;31270;48.328;10.096;2022-12-05T03:39:42;46.47;;;16.37;;
45548;SDS011;31270;48.328;10.096;2022-12-05T03:42:13;46.23;;;16.93;;
45548;SDS011;31270;48.328;10.096;2022-12-05T03:45:01;45.50;;;16.90;;
45548;SDS011;31270;48.328;10.096;2022-12-05T03:47:37;41.90;;;16.63;;
45548;SDS011;31270;48.328;10.096;2022-12-05T03:50:24;52.67;;;17.37;;
45548;SDS011;31270;48.328;10.096;2022-12-05T03:52:53;46.93;;;17.13;;
45548;SDS011;31270;48.328;10.096;2022-12-05T03:55:24;44.23;;;18.03;;
45548;SDS011;31270;48.328;10.096;2022-12-05T03:58:14;45.20;;;15.67;;
45548;SDS011;31270;48.328;10.096;2022-12-05T04:00:47;44.20;;;16.63;;
45548;SDS011;31270;48.328;10.096;2022-12-05T04:03:26;41.43;;;16.47;;
45548;SDS011;31270;48.328;10.096;2022-12-05T04:06:11;44.30;;;15.73;;
45548;SDS011;31270;48.328;10.096;2022-12-05T04:08:48;42.50;;;16.77;;
45548;SDS011;31270;48.328;10.096;2022-12-05T04:11:22;44.57;;;17.40;;
45548;SDS011;31270;48.328;10.096;2022-12-05T04:13:53;45.83;;;16.97;;
45548;SDS011;31270;48.328;10.096;2022-12-05T04:16:28;43.87;;;17.97;;
45548;SDS011;31270;48.328;10.096;2022-12-05T04:19:25;47.50;;;16.83;;
45548;SDS011;31270;48.328;10.096;2022-12-05T04:22:19;50.27;;;17.53;;
45548;SDS011;31270;48.328;10.096;2022-12-05T04:24:46;43.47;;;16.93;;
45548;SDS011;31270;48.328;10.096;2022-12-05T04:30:22;47.60;;;16.77;;
45548;SDS011;31270;48.328;10.096;2022-12-05T04:35:43;42.73;;;17.30;;
45548;SDS011;31270;48.328;10.096;2022-12-05T04:38:47;41.43;;;16.53;;
45548;SDS011;31270;48.328;10.096;2022-12-05T04:41:19;38.07;;;16.70;;
45548;SDS011;31270;48.328;10.096;2022-12-05T04:43:48;43.73;;;16.93;;
45548;SDS011;31270;48.328;10.096;2022-12-05T04:46:17;41.97;;;17.03;;
45548;SDS011;31270;48.328;10.096;2022-12-05T04:48:46;43.27;;;18.40;;
45548;SDS011;31270;48.328;10.096;2022-12-05T04:51:17;43.73;;;17.30;;
45548;SDS011;31270;48.328;10.096;2022-12-05T04:53:48;48.50;;;17.83;;
45548;SDS011;31270;48.328;10.096;2022-12-05T04:56:18;50.90;;;18.73;;
45548;SDS011;31270;48.328;10.096;2022-12-05T04:58:45;46.27;;;18.23;;
45548;SDS011;31270;48.328;10.096;2022-12-05T05:01:18;41.53;;;17.20;;
45548;SDS011;31270;48.328;10.096;2022-12-05T05:06:20;41.33;;;17.33;;
45548;SDS011;31270;48.328;10.096;2022-12-05T05:08:47;43.57;;;17.20;;
45548;SDS011;31270;48.328;10.096;2022-12-05T05:13:50;48.07;;;18.37;;
45548;SDS011;31270;48.328;10.096;2022-12-05T05:16:17;47.73;;;18.30;;
45548;SDS011;31270;48.328;10.096;2022-12-05T05:18:48;50.87;;;18.20;;
45548;SDS011;31270;48.328;10.096;2022-12-05T05:21:21;46.73;;;18.90;;
45548;SDS011;31270;48.328;10.096;2022-12-05T05:23:50;47.37;;;17.70;;
45548;SDS011;31270;48.328;10.096;2022-12-05T05:26:16;40.70;;;17.37;;
45548;SDS011;31270;48.328;10.096;2022-12-05T05:28:43;44.90;;;17.80;;
45548;SDS011;31270;48.328;10.096;2022-12-05T05:31:09;50.33;;;18.07;;
45548;SDS011;31270;48.328;10.096;2022-12-05T05:33:35;41.97;;;18.70;;
45548;SDS011;31270;48.328;10.096;2022-12-05T05:36:05;48.30;;;17.83;;
45548;SDS011;31270;48.328;10.096;2022-12-05T05:38:39;48.53;;;18.97;;
45548;SDS011;31270;48.328;10.096;2022-12-05T05:41:14;43.37;;;17.23;;
45548;SDS011;31270;48.328;10.096;2022-12-05T05:43:42;44.40;;;18.60;;
45548;SDS011;31270;48.328;10.096;2022-12-05T05:46:09;48.13;;;18.10;;
45548;SDS011;31270;48.328;10.096;2022-12-05T05:48:35;42.33;;;17.43;;
45548;SDS011;31270;48.328;10.096;2022-12-05T05:51:02;40.63;;;17.13;;
45548;SDS011;31270;48.328;10.096;2022-12-05T05:53:29;42.73;;;17.70;;
45548;SDS011;31270;48.328;10.096;2022-12-05T05:55:55;45.87;;;17.07;;
45548;SDS011;31270;48.328;10.096;2022-12-05T05:58:21;42.30;;;16.67;;
45548;SDS011;31270;48.328;10.096;2022-12-05T06:00:47;42.80;;;17.17;;
45548;SDS011;31270;48.328;10.096;2022-12-05T06:03:12;35.27;;;16.53;;
45548;SDS011;31270;48.328;10.096;2022-12-05T06:05:38;40.53;;;17.17;;
45548;SDS011;31270;48.328;10.096;2022-12-05T06:08:04;34.13;;;15.43;;
45548;SDS011;31270;48.328;10.096;2022-12-05T06:10:29;39.27;;;16.00;;
45548;SDS011;31270;48.328;10.096;2022-12-05T06:12:55;41.70;;;17.00;;
45548;SDS011;31270;48.328;10.096;2022-12-05T06:15:22;38.47;;;17.03;;
45548;SDS011;31270;48.328;10.096;2022-12-05T06:17:47;35.83;;;16.87;;
45548;SDS011;31270;48.328;10.096;2022-12-05T06:20:13;37.67;;;16.50;;
45548;SDS011;31270;48.328;10.096;2022-12-05T06:22:39;39.27;;;17.83;;
45548;SDS011;31270;48.328;10.096;2022-12-05T06:25:05;36.63;;;16.07;;
45548;SDS011;31270;48.328;10.096;2022-12-05T06:27:31;40.73;;;17.97;;
45548;SDS011;31270;48.328;10.096;2022-12-05T06:29:57;44.53;;;17.63;;
45548;SDS011;31270;48.328;10.096;2022-12-05T06:32:22;40.77;;;18.53;;
45548;SDS011;31270;48.328;10.096;2022-12-05T06:34:48;45.27;;;18.70;;
45548;SDS011;31270;48.328;10.096;2022-12-05T06:37:14;42.80;;;18.03;;
45548;SDS011;31270;48.328;10.096;2022-12-05T06:39:39;42.90;;;19.70;;
45548;SDS011;31270;48.328;10.096;2022-12-05T06:42:05;43.13;;;17.87;;
45548;SDS011;31270;48.328;10.096;2022-12-05T06:44:31;46.03;;;17.33;;
45548;SDS011;31270;48.328;10.096;2022-12-05T06:46:56;41.43;;;18.40;;
45548;SDS011;31270;48.328;10.096;2022-12-05T06:49:22;48.27;;;19.83;;
45548;SDS011;31270;48.328;10.096;2022-12-05T06:51:51;45.27;;;19.27;;
45548;SDS011;31270;48.328;10.096;2022-12-05T06:54:17;44.33;;;17.97;;
45548;SDS011;31270;48.328;10.096;2022-12-05T06:56:43;47.30;;;19.87;;
45548;SDS011;31270;48.328;10.096;2022-12-05T06:59:09;42.63;;;18.57;;
45548;SDS011;31270;48.328;10.096;2022-12-05T07:01:35;48.20;;;19.40;;
45548;SDS011;31270;48.328;10.096;2022-12-05T07:04:06;41.70;;;18.80;;
45548;SDS011;31270;48.328;10.096;2022-12-05T07:06:32;42.90;;;18.53;;
45548;SDS011;31270;48.328;10.096;2022-12-05T07:08:58;42.47;;;18.80;;
45548;SDS011;31270;48.328;10.096;2022-12-05T07:11:24;44.80;;;18.87;;
45548;SDS011;31270;48.328;10.096;2022-12-05T07:13:50;42.07;;;18.60;;
45548;SDS011;31270;48.328;10.096;2022-12-05T07:16:16;41.30;;;19.67;;
45548;SDS011;31270;48.328;10.096;2022-12-05T07:18:42;44.47;;;19.40;;
45548;SDS011;31270;48.328;10.096;2022-12-05T07:21:09;44.03;;;19.57;;
45548;SDS011;31270;48.328;10.096;2022-12-05T07:23:37;37.23;;;18.73;;
45548;SDS011;31270;48.328;10.096;2022-12-05T07:26:04;45.20;;;20.43;;
45548;SDS011;31270;48.328;10.096;2022-12-05T07:28:30;46.43;;;19.37;;
45548;SDS011;31270;48.328;10.096;2022-12-05T07:31:04;43.37;;;18.87;;
45548;SDS011;31270;48.328;10.096;2022-12-05T07:33:31;43.77;;;19.27;;
45548;SDS011;31270;48.328;10.096;2022-12-05T07:35:59;44.47;;;18.33;;
45548;SDS011;31270;48.328;10.096;2022-12-05T07:38:25;39.00;;;18.83;;
45548;SDS011;31270;48.328;10.096;2022-12-05T07:40:51;40.73;;;19.40;;
45548;SDS011;31270;48.328;10.096;2022-12-05T07:43:17;43.50;;;19.30;;
45548;SDS011;31270;48.328;10.096;2022-12-05T07:45:42;43.10;;;19.43;;
45548;SDS011;31270;48.328;10.096;2022-12-05T07:48:08;43.13;;;19.10;;
45548;SDS011;31270;48.328;10.096;2022-12-05T07:50:35;39.50;;;18.17;;
45548;SDS011;31270;48.328;10.096;2022-12-05T07:53:01;43.53;;;19.73;;
45548;SDS011;31270;48.328;10.096;2022-12-05T07:55:26;43.10;;;19.13;;
45548;SDS011;31270;48.328;10.096;2022-12-05T07:57:52;40.83;;;19.80;;
45548;SDS011;31270;48.328;10.096;2022-12-05T08:00:18;51.97;;;22.37;;
45548;SDS011;31270;48.328;10.096;2022-12-05T08:02:44;47.93;;;21.40;;
45548;SDS011;31270;48.328;10.096;2022-12-05T08:05:09;44.77;;;21.67;;
45548;SDS011;31270;48.328;10.096;2022-12-05T08:07:35;54.13;;;20.37;;
45548;SDS011;31270;48.328;10.096;2022-12-05T08:10:00;46.07;;;20.37;;
45548;SDS011;31270;48.328;10.096;2022-12-05T08:12:26;41.03;;;19.17;;
45548;SDS011;31270;48.328;10.096;2022-12-05T08:14:52;48.87;;;20.43;;
45548;SDS011;31270;48.328;10.096;2022-12-05T08:17:17;44.83;;;20.23;;
45548;SDS011;31270;48.328;10.096;2022-12-05T08:19:43;42.67;;;18.97;;
45548;SDS011;31270;48.328;10.096;2022-12-05T08:22:08;45.33;;;20.43;;
45548;SDS011;31270;48.328;10.096;2022-12-05T08:24:34;39.80;;;19.83;;
45548;SDS011;31270;48.328;10.096;2022-12-05T08:27:00;39.90;;;19.40;;
45548;SDS011;31270;48.328;10.096;2022-12-05T08:29:25;44.60;;;19.80;;
45548;SDS011;31270;48.328;10.096;2022-12-05T08:31:51;41.20;;;20.10;;
45548;SDS011;31270;48.328;10.096;2022-12-05T08:34:17;41.40;;;19.73;;
45548;SDS011;31270;48.328;10.096;2022-12-05T08:36:44;38.77;;;19.33;;
45548;SDS011;31270;48.328;10.096;2022-12-05T08:39:12;37.43;;;18.77;;
45548;SDS011;31270;48.328;10.096;2022-12-05T08:41:40;40.33;;;20.27;;
45548;SDS011;31270;48.328;10.096;2022-12-05T08:44:07;38.03;;;19.13;;
45548;SDS011;31270;48.328;10.096;2022-12-05T08:46:35;34.53;;;18.17;;
45548;SDS011;31270;48.328;10.096;2022-12-05T08:49:02;38.93;;;19.73;;
45548;SDS011;31270;48.328;10.096;2022-12-05T08:51:29;38.33;;;18.47;;
45548;SDS011;31270;48.328;10.096;2022-12-05T08:53:55;42.53;;;19.33;;
45548;SDS011;31270;48.328;10.096;2022-12-05T08:56:21;35.37;;;18.67;;
45548;SDS011;31270;48.328;10.096;2022-12-05T08:58:47;41.20;;;18.67;;
45548;SDS011;31270;48.328;10.096;2022-12-05T09:01:14;38.00;;;18.47;;
45548;SDS011;31270;48.328;10.096;2022-12-05T09:03:42;38.00;;;18.17;;
45548;SDS011;31270;48.328;10.096;2022-12-05T09:08:34;37.73;;;19.93;;
45548;SDS011;31270;48.328;10.096;2022-12-05T09:11:07;37.43;;;19.97;;
45548;SDS011;31270;48.328;10.096;2022-12-05T09:13:38;35.57;;;18.60;;
45548;SDS011;31270;48.328;10.096;2022-12-05T09:16:14;37.13;;;18.03;;
45548;SDS011;31270;48.328;10.096;2022-12-05T09:18:41;35.87;;;17.37;;
45548;SDS011;31270;48.328;10.096;2022-12-05T09:21:08;32.43;;;17.73;;
45548;SDS011;31270;48.328;10.096;2022-12-05T09:23:38;37.13;;;18.27;;
45548;SDS011;31270;48.328;10.096;2022-12-05T09:26:05;33.53;;;17.90;;
45548;SDS011;31270;48.328;10.096;2022-12-05T09:28:32;32.53;;;16.40;;
45548;SDS011;31270;48.328;10.096;2022-12-05T09:31:00;34.33;;;17.93;;
45548;SDS011;31270;48.328;10.096;2022-12-05T09:33:28;34.63;;;16.77;;
45548;SDS011;31270;48.328;10.096;2022-12-05T09:35:55;29.40;;;16.23;;
45548;SDS011;31270;48.328;10.096;2022-12-05T09:38:21;29.90;;;16.13;;
45548;SDS011;31270;48.328;10.096;2022-12-05T09:40:53;34.73;;;16.97;;
45548;SDS011;31270;48.328;10.096;2022-12-05T09:43:30;33.27;;;16.87;;
45548;SDS011;31270;48.328;10.096;2022-12-05T09:49:05;32.13;;;15.33;;
45548;SDS011;31270;48.328;10.096;2022-12-05T09:51:41;31.57;;;15.27;;
45548;SDS011;31270;48.328;10.096;2022-12-05T09:54:09;34.70;;;16.77;;
45548;SDS011;31270;48.328;10.096;2022-12-05T09:56:36;33.03;;;17.13;;
45548;SDS011;31270;48.328;10.096;2022-12-05T09:59:03;34.23;;;17.80;;
45548;SDS011;31270;48.328;10.096;2022-12-05T10:01:32;33.57;;;17.50;;
45548;SDS011;31270;48.328;10.096;2022-12-05T10:04:04;32.10;;;16.33;;
45548;SDS011;31270;48.328;10.096;2022-12-05T10:06:44;27.83;;;15.03;;
45548;SDS011;31270;48.328;10.096;2022-12-05T10:17:40;25.00;;;13.23;;
45548;SDS011;31270;48.328;10.096;2022-12-05T10:21:12;28.13;;;13.27;;
45548;SDS011;31270;48.328;10.096;2022-12-05T10:23:24;24.83;;;13.97;;
45548;SDS011;31270;48.328;10.096;2022-12-05T10:25:57;18.70;;;10.47;;
45548;SDS011;31270;48.328;10.096;2022-12-05T10:28:27;16.93;;;10.30;;
45548;SDS011;31270;48.328;10.096;2022-12-05T10:31:03;15.80;;;10.43;;
45548;SDS011;31270;48.328;10.096;2022-12-05T10:33:36;16.73;;;9.77;;
45548;SDS011;31270;48.328;10.096;2022-12-05T10:36:08;14.33;;;8.60;;
45548;SDS011;31270;48.328;10.096;2022-12-05T10:38:35;19.90;;;9.63;;
45548;SDS011;31270;48.328;10.096;2022-12-05T10:41:05;16.03;;;8.60;;
45548;SDS011;31270;48.328;10.096;2022-12-05T10:43:32;12.07;;;7.73;;
45548;SDS011;31270;48.328;10.096;2022-12-05T10:46:01;15.00;;;8.07;;
45548;SDS011;31270;48.328;10.096;2022-12-05T10:48:28;12.17;;;7.20;;
45548;SDS011;31270;48.328;10.096;2022-12-05T10:50:56;12.20;;;6.93;;
45548;SDS011;31270;48.328;10.096;2022-12-05T10:53:31;11.20;;;6.80;;
45548;SDS011;31270;48.328;10.096;2022-12-05T10:56:47;12.73;;;6.83;;
45548;SDS011;31270;48.328;10.096;2022-12-05T10:59:00;12.27;;;6.70;;
45548;SDS011;31270;48.328;10.096;2022-12-05T11:01:27;10.93;;;6.13;;
45548;SDS011;31270;48.328;10.096;2022-12-05T11:03:57;10.63;;;6.37;;
45548;SDS011;31270;48.328;10.096;2022-12-05T11:06:28;9.53;;;5.93;;
45548;SDS011;31270;48.328;10.096;2022-12-05T11:09:02;9.73;;;5.83;;
45548;SDS011;31270;48.328;10.096;2022-12-05T11:11:38;10.93;;;5.87;;
45548;SDS011;31270;48.328;10.096;2022-12-05T11:14:05;9.53;;;5.53;;
45548;SDS011;31270;48.328;10.096;2022-12-05T11:16:49;9.03;;;5.70;;
45548;SDS011;31270;48.328;10.096;2022-12-05T11:21:46;9.17;;;5.63;;
45548;SDS011;31270;48.328;10.096;2022-12-05T11:26:53;6.90;;;4.83;;
45548;SDS011;31270;48.328;10.096;2022-12-05T11:31:55;7.10;;;4.93;;
45548;SDS011;31270;48.328;10.096;2022-12-05T11:34:26;7.03;;;4.90;;
45548;SDS011;31270;48.328;10.096;2022-12-05T11:37:00;6.90;;;3.53;;
45548;SDS011;31270;48.328;10.096;2022-12-05T11:39:34;8.23;;;4.80;;
45548;SDS011;31270;48.328;10.096;2022-12-05T11:42:13;5.80;;;3.60;;
45548;SDS011;31270;48.328;10.096;2022-12-05T12:10:34;6.03;;;4.30;;
45548;SDS011;31270;48.328;10.096;2022-12-05T12:13:07;5.83;;;4.40;;
45548;SDS011;31270;48.328;10.096;2022-12-05T12:18:51;6.87;;;4.83;;
45548;SDS011;31270;48.328;10.096;2022-12-05T12:21:57;7.23;;;4.60;;
45548;SDS011;31270;48.328;10.096;2022-12-05T12:24:50;10.00;;;6.20;;
45548;SDS011;31270;48.328;10.096;2022-12-05T12:30:21;8.53;;;6.03;;
45548;SDS011;31270;48.328;10.096;2022-12-05T12:33:07;10.03;;;6.27;;
45548;SDS011;31270;48.328;10.096;2022-12-05T12:35:53;12.07;;;6.63;;
45548;SDS011;31270;48.328;10.096;2022-12-05T12:38:30;10.73;;;6.13;;
45548;SDS011;31270;48.328;10.096;2022-12-05T12:52:13;9.97;;;7.23;;
45548;SDS011;31270;48.328;10.096;2022-12-05T12:55:02;11.53;;;7.43;;
45548;SDS011;31270;48.328;10.096;2022-12-05T13:03:14;36.33;;;23.27;;
45548;SDS011;31270;48.328;10.096;2022-12-05T13:05:47;23.27;;;18.13;;
45548;SDS011;31270;48.328;10.096;2022-12-05T13:08:27;16.40;;;12.43;;
45548;SDS011;31270;48.328;10.096;2022-12-05T13:11:06;10.67;;;7.70;;
45548;SDS011;31270;48.328;10.096;2022-12-05T13:13:36;12.40;;;8.50;;
45548;SDS011;31270;48.328;10.096;2022-12-05T13:16:33;11.43;;;7.87;;
45548;SDS011;31270;48.328;10.096;2022-12-05T13:19:04;9.77;;;7.03;;
45548;SDS011;31270;48.328;10.096;2022-12-05T13:21:31;10.80;;;6.90;;
45548;SDS011;31270;48.328;10.096;2022-12-05T13:23:56;11.90;;;7.33;;
45548;SDS011;31270;48.328;10.096;2022-12-05T13:26:28;9.80;;;7.20;;
45548;SDS011;31270;48.328;10.096;2022-12-05T13:28:55;9.80;;;7.17;;
45548;SDS011;31270;48.328;10.096;2022-12-05T13:31:34;9.10;;;6.63;;
45548;SDS011;31270;48.328;10.096;2022-12-05T13:34:01;8.03;;;6.87;;
45548;SDS011;31270;48.328;10.096;2022-12-05T13:36:27;8.93;;;6.60;;
45548;SDS011;31270;48.328;10.096;2022-12-05T13:39:17;8.53;;;6.40;;
45548;SDS011;31270;48.328;10.096;2022-12-05T13:42:04;9.10;;;7.10;;
45548;SDS011;31270;48.328;10.096;2022-12-05T13:52:47;9.27;;;5.93;;
45548;SDS011;31270;48.328;10.096;2022-12-05T13:55:35;7.80;;;6.20;;
45548;SDS011;31270;48.328;10.096;2022-12-05T13:58:49;6.50;;;5.37;;
45548;SDS011;31270;48.328;10.096;2022-12-05T14:00:49;7.30;;;6.03;;
45548;SDS011;31270;48.328;10.096;2022-12-05T14:05:59;6.27;;;5.37;;
45548;SDS011;31270;48.328;10.096;2022-12-05T14:15:51;8.00;;;5.80;;
45548;SDS011;31270;48.328;10.096;2022-12-05T14:21:11;5.23;;;4.67;;
45548;SDS011;31270;48.328;10.096;2022-12-05T14:26:50;6.10;;;4.73;;
45548;SDS011;31270;48.328;10.096;2022-12-05T14:37:35;6.73;;;5.30;;
45548;SDS011;31270;48.328;10.096;2022-12-05T14:40:02;12.17;;;5.53;;
45548;SDS011;31270;48.328;10.096;2022-12-05T14:42:58;10.07;;;6.90;;
45548;SDS011;31270;48.328;10.096;2022-12-05T14:45:52;8.80;;;6.53;;
45548;SDS011;31270;48.328;10.096;2022-12-05T14:48:39;10.73;;;6.10;;
45548;SDS011;31270;48.328;10.096;2022-12-05T14:56:38;11.70;;;7.67;;
45548;SDS011;31270;48.328;10.096;2022-12-05T14:59:19;7.43;;;5.30;;
45548;SDS011;31270;48.328;10.096;2022-12-05T15:02:13;8.40;;;5.20;;
45548;SDS011;31270;48.328;10.096;2022-12-05T15:04:55;7.87;;;6.50;;
45548;SDS011;31270;48.328;10.096;2022-12-05T15:07:35;10.50;;;7.10;;
45548;SDS011;31270;48.328;10.096;2022-12-05T15:10:09;9.57;;;7.87;;
45548;SDS011;31270;48.328;10.096;2022-12-05T15:12:54;12.97;;;9.50;;
45548;SDS011;31270;48.328;10.096;2022-12-05T15:23:56;12.53;;;6.87;;
45548;SDS011;31270;48.328;10.096;2022-12-05T15:31:28;7.13;;;4.80;;
45548;SDS011;31270;48.328;10.096;2022-12-05T15:33:57;6.07;;;4.80;;
45548;SDS011;31270;48.328;10.096;2022-12-05T15:36:30;6.87;;;5.80;;
45548;SDS011;31270;48.328;10.096;2022-12-05T15:39:03;8.27;;;5.00;;
45548;SDS011;31270;48.328;10.096;2022-12-05T15:41:41;5.10;;;4.50;;
45548;SDS011;31270;48.328;10.096;2022-12-05T15:44:08;23.00;;;11.97;;
45548;SDS011;31270;48.328;10.096;2022-12-05T15:46:35;19.43;;;12.20;;
45548;SDS011;31270;48.328;10.096;2022-12-05T15:49:01;10.30;;;7.00;;
45548;SDS011;31270;48.328;10.096;2022-12-05T15:51:54;9.40;;;6.20;;
45548;SDS011;31270;48.328;10.096;2022-12-05T15:54:28;6.77;;;4.97;;
45548;SDS011;31270;48.328;10.096;2022-12-05T15:56:59;6.07;;;4.97;;
45548;SDS011;31270;48.328;10.096;2022-12-05T15:59:40;10.00;;;6.60;;
45548;SDS011;31270;48.328;10.096;2022-12-05T16:02:16;8.13;;;6.07;;
45548;SDS011;31270;48.328;10.096;2022-12-05T16:04:48;8.80;;;6.80;;
45548;SDS011;31270;48.328;10.096;2022-12-05T16:07:20;6.40;;;5.80;;
45548;SDS011;31270;48.328;10.096;2022-12-05T16:09:53;8.73;;;5.77;;
45548;SDS011;31270;48.328;10.096;2022-12-05T16:14:59;11.47;;;6.70;;
45548;SDS011;31270;48.328;10.096;2022-12-05T16:17:29;10.70;;;7.20;;
45548;SDS011;31270;48.328;10.096;2022-12-05T16:20:10;11.13;;;6.77;;
45548;SDS011;31270;48.328;10.096;2022-12-05T16:22:46;9.97;;;6.37;;
45548;SDS011;31270;48.328;10.096;2022-12-05T16:25:14;7.63;;;5.77;;
45548;SDS011;31270;48.328;10.096;2022-12-05T16:28:02;7.90;;;5.37;;
45548;SDS011;31270;48.328;10.096;2022-12-05T16:30:31;8.53;;;7.20;;
45548;SDS011;31270;48.328;10.096;2022-12-05T16:33:04;10.37;;;8.00;;
45548;SDS011;31270;48.328;10.096;2022-12-05T16:40:34;13.60;;;10.13;;
45548;SDS011;31270;48.328;10.096;2022-12-05T16:43:02;22.50;;;16.30;;
45548;SDS011;31270;48.328;10.096;2022-12-05T16:45:43;37.23;;;30.53;;
45548;SDS011;31270;48.328;10.096;2022-12-05T16:48:23;23.20;;;18.20;;
45548;SDS011;31270;48.328;10.096;2022-12-05T16:50:50;14.27;;;10.13;;
45548;SDS011;31270;48.328;10.096;2022-12-05T16:53:23;36.97;;;24.07;;
45548;SDS011;31270;48.328;10.096;2022-12-05T16:55:53;43.20;;;26.17;;
45548;SDS011;31270;48.328;10.096;2022-12-05T16:58:22;37.07;;;22.43;;
45548;SDS011;31270;48.328;10.096;2022-12-05T17:00:49;29.13;;;19.40;;
45548;SDS011;31270;48.328;10.096;2022-12-05T17:03:16;21.27;;;15.43;;
45548;SDS011;31270;48.328;10.096;2022-12-05T17:05:42;22.00;;;15.10;;
45548;SDS011;31270;48.328;10.096;2022-12-05T17:08:07;24.20;;;15.70;;
45548;SDS011;31270;48.328;10.096;2022-12-05T17:10:33;22.53;;;13.93;;
45548;SDS011;31270;48.328;10.096;2022-12-05T17:12:59;17.77;;;11.07;;